Time;durP1;ratioP1;P1;durP2;ratioP2;P2;SDS_P1;SDS_P2;PMS_P1;PMS_P2;Temp;Humidity;BMP_temperature;BMP_pressure;BME280_temperature;BME280_humidity;BME280_pressure;Samples;Min_cycle;Max_cycle;Signal;HPM_P1;HPM_P2
2021/07/14 00:02:08;;;;;;;101.30;50.65;;;19.70;99.90;;;;;;5054412;28;20031;-84
2021/07/14 00:04:35;;;;;;;102.70;52.22;;;19.70;99.90;;;;;;5048991;28;20052;-85
2021/07/14 00:07:03;;;;;;;107.10;52.55;;;19.70;99.90;;;;;;5080249;28;20418;-84
2021/07/14 00:09:29;;;;;;;100.07;53.35;;;19.80;99.90;;;;;;5082164;28;20040;-85
2021/07/14 00:12:00;;;;;;;102.18;53.90;;;19.70;99.90;;;;;;5048303;28;20214;-84
2021/07/14 00:17:01;;;;;;;106.03;54.05;;;19.70;99.90;;;;;;5077532;28;20255;-84
2021/07/14 00:17:22;;;;;;;102.43;53.95;;;19.70;99.90;;;;;;5078676;28;20134;-84
2021/07/14 00:22:35;;;;;;;90.63;50.38;;;19.70;99.90;;;;;;5077483;28;20063;-84
2021/07/14 00:25:04;;;;;;;95.47;51.45;;;19.70;99.90;;;;;;5078588;28;20032;-84
2021/07/14 00:27:29;;;;;;;106.20;53.05;;;19.70;99.90;;;;;;5076005;28;20414;-84
2021/07/14 00:29:56;;;;;;;96.63;51.47;;;19.70;99.90;;;;;;5027354;28;20117;-84
2021/07/14 00:32:27;;;;;;;104.38;53.75;;;19.70;99.90;;;;;;5061095;28;20196;-84
2021/07/14 00:34:53;;;;;;;97.43;51.58;;;19.70;99.90;;;;;;5059642;28;20039;-86
2021/07/14 00:37:20;;;;;;;107.03;52.28;;;19.70;99.90;;;;;;5074455;28;20537;-85
2021/07/14 00:39:55;;;;;;;105.18;53.20;;;19.70;99.90;;;;;;5069686;28;20139;-85
2021/07/14 00:42:24;;;;;;;102.45;50.25;;;19.70;99.90;;;;;;5071332;28;20028;-84
2021/07/14 00:44:51;;;;;;;107.50;51.08;;;19.70;99.90;;;;;;5073371;28;20035;-85
2021/07/14 00:47:33;;;;;;;110.88;52.22;;;19.70;99.90;;;;;;5071899;28;20033;-85
2021/07/14 00:50:00;;;;;;;103.95;50.03;;;19.70;99.90;;;;;;5072813;28;20031;-84
2021/07/14 00:52:26;;;;;;;108.18;49.95;;;19.70;99.90;;;;;;5072088;28;20043;-84
2021/07/14 00:54:52;;;;;;;115.38;49.72;;;19.60;99.90;;;;;;5057166;28;20459;-86
2021/07/14 00:57:20;;;;;;;96.63;47.67;;;19.70;99.90;;;;;;5062938;28;20032;-85
2021/07/14 00:59:46;;;;;;;88.43;44.45;;;19.60;99.90;;;;;;5079985;28;20036;-85
2021/07/14 01:02:13;;;;;;;108.00;47.50;;;19.60;99.90;;;;;;5059751;28;20501;-84
2021/07/14 01:04:42;;;;;;;100.70;46.47;;;19.60;99.90;;;;;;5061200;28;20108;-85
2021/07/14 01:07:31;;;;;;;110.40;47.70;;;19.60;99.90;;;;;;5077948;28;20039;-87
2021/07/14 01:10:06;;;;;;;118.05;48.10;;;19.60;99.90;;;;;;5075594;28;20040;-85
2021/07/14 01:12:59;;;;;;;100.43;44.38;;;19.60;99.90;;;;;;5072992;28;20102;-83
2021/07/14 01:15:31;;;;;;;103.82;45.78;;;19.60;99.90;;;;;;5081463;28;20459;-85
2021/07/14 01:18:31;;;;;;;109.72;45.83;;;19.50;99.90;;;;;;5081267;28;20036;-84
2021/07/14 01:21:28;;;;;;;111.32;45.88;;;19.50;99.90;;;;;;5062379;28;20123;-84
2021/07/14 01:24:10;;;;;;;115.88;44.78;;;19.50;99.90;;;;;;5077830;28;20036;-85
2021/07/14 01:27:01;;;;;;;106.78;44.97;;;19.50;99.90;;;;;;5089856;28;20048;-86
2021/07/14 01:29:29;;;;;;;93.05;42.17;;;19.50;99.90;;;;;;5073772;28;20037;-85
2021/07/14 01:31:55;;;;;;;79.00;38.85;;;19.40;99.90;;;;;;5059545;28;20174;-85
2021/07/14 01:34:23;;;;;;;103.72;43.70;;;19.40;99.90;;;;;;5076448;28;20032;-85
2021/07/14 01:36:52;;;;;;;101.25;43.65;;;19.40;99.90;;;;;;5078753;28;20032;-85
2021/07/14 01:39:25;;;;;;;107.53;43.22;;;19.40;99.90;;;;;;5079326;28;20028;-86
2021/07/14 01:41:55;;;;;;;95.88;44.00;;;19.40;99.90;;;;;;5057001;28;20695;-86
2021/07/14 01:44:25;;;;;;;105.25;46.90;;;19.40;99.90;;;;;;5067862;28;20043;-86
2021/07/14 01:46:57;;;;;;;125.82;49.40;;;19.30;99.90;;;;;;5050305;28;20032;-83
2021/07/14 01:49:26;;;;;;;112.57;49.08;;;19.30;99.90;;;;;;5052673;28;20121;-84
2021/07/14 01:52:00;;;;;;;121.00;50.80;;;19.30;99.90;;;;;;5083204;28;20107;-84
2021/07/14 01:54:26;;;;;;;112.82;50.33;;;19.30;99.90;;;;;;5081388;28;20544;-83
2021/07/14 01:56:53;;;;;;;106.43;50.42;;;19.30;99.90;;;;;;5084044;28;20061;-83
2021/07/14 01:59:30;;;;;;;108.47;51.13;;;19.20;99.90;;;;;;5084553;28;20038;-84
2021/07/14 02:02:00;;;;;;;125.60;53.72;;;19.20;99.90;;;;;;5077526;28;20089;-83
2021/07/14 02:04:30;;;;;;;121.00;51.22;;;19.20;99.90;;;;;;5070224;28;20095;-83
2021/07/14 02:07:06;;;;;;;104.65;49.22;;;19.20;99.90;;;;;;5067792;28;20552;-83
2021/07/14 02:09:37;;;;;;;124.40;53.22;;;19.20;99.90;;;;;;5082534;28;20491;-83
2021/07/14 02:12:06;;;;;;;107.20;48.75;;;19.10;99.90;;;;;;5084608;28;20540;-84
2021/07/14 02:14:52;;;;;;;111.97;49.53;;;19.10;99.90;;;;;;5080222;28;20040;-82
2021/07/14 02:17:22;;;;;;;126.30;50.10;;;19.10;99.90;;;;;;5086556;28;20040;-83
2021/07/14 02:20:04;;;;;;;109.03;48.53;;;19.10;99.90;;;;;;5095782;28;20039;-83
2021/07/14 02:22:30;;;;;;;112.25;48.60;;;19.10;99.90;;;;;;5076599;28;20062;-83
2021/07/14 02:24:56;;;;;;;108.75;48.30;;;19.10;99.90;;;;;;5084931;28;20028;-83
2021/07/14 02:27:22;;;;;;;122.07;50.00;;;19.10;99.90;;;;;;5066638;28;20115;-84
2021/07/14 02:29:48;;;;;;;110.65;49.22;;;19.10;99.90;;;;;;5081532;28;20111;-82
2021/07/14 02:32:18;;;;;;;107.22;47.10;;;19.10;99.90;;;;;;5082411;28;20082;-84
2021/07/14 02:34:46;;;;;;;118.65;47.58;;;19.00;99.90;;;;;;5083762;28;20322;-83
2021/07/14 02:37:15;;;;;;;105.78;46.47;;;19.00;99.90;;;;;;5086075;28;20024;-83
2021/07/14 02:39:45;;;;;;;123.90;50.17;;;19.00;99.90;;;;;;5086760;28;20055;-84
2021/07/14 02:42:27;;;;;;;113.50;47.60;;;19.00;99.90;;;;;;5069196;28;20050;-86
2021/07/14 02:44:53;;;;;;;107.45;45.55;;;19.00;99.90;;;;;;5083029;28;20036;-85
2021/07/14 02:47:21;;;;;;;123.47;48.40;;;19.00;99.90;;;;;;5085576;28;20090;-83
2021/07/14 02:49:48;;;;;;;126.15;48.53;;;19.00;99.90;;;;;;5075122;28;20101;-83
2021/07/14 02:52:15;;;;;;;115.88;47.05;;;18.90;99.90;;;;;;5075030;28;20081;-85
2021/07/14 02:54:43;;;;;;;147.38;50.15;;;18.90;99.90;;;;;;5063376;28;20040;-83
2021/07/14 02:57:13;;;;;;;118.00;46.33;;;18.90;99.90;;;;;;5078015;28;20086;-83
2021/07/14 02:59:44;;;;;;;114.97;45.47;;;18.90;99.90;;;;;;5069360;28;20044;-84
2021/07/14 03:02:11;;;;;;;120.03;44.75;;;18.90;99.90;;;;;;5081018;28;20048;-84
2021/07/14 03:04:41;;;;;;;122.85;46.28;;;18.90;99.90;;;;;;5081365;28;20043;-84
2021/07/14 03:07:08;;;;;;;137.32;49.55;;;18.90;99.90;;;;;;5062674;28;20445;-83
2021/07/14 03:09:39;;;;;;;138.85;48.83;;;18.90;99.90;;;;;;5072952;28;20060;-83
2021/07/14 03:12:14;;;;;;;137.98;48.95;;;18.90;99.90;;;;;;5087941;28;20036;-82
2021/07/14 03:14:45;;;;;;;128.27;45.13;;;18.90;99.90;;;;;;5087089;28;20120;-81
2021/07/14 03:17:14;;;;;;;160.40;47.70;;;18.90;99.90;;;;;;5083851;28;20032;-82
2021/07/14 03:19:42;;;;;;;127.13;44.47;;;18.80;99.90;;;;;;5078794;28;20503;-82
2021/07/14 03:22:09;;;;;;;136.63;44.88;;;18.80;99.90;;;;;;5066258;28;20033;-82
2021/07/14 03:24:36;;;;;;;134.88;42.72;;;18.80;99.90;;;;;;5074045;28;20096;-83
2021/07/14 03:27:04;;;;;;;151.15;43.47;;;18.80;99.90;;;;;;5057565;28;20462;-82
2021/07/14 03:29:32;;;;;;;142.50;42.55;;;18.80;99.90;;;;;;5089931;28;20032;-83
2021/07/14 03:32:01;;;;;;;157.45;43.95;;;18.80;99.90;;;;;;5087495;28;20122;-83
2021/07/14 03:34:27;;;;;;;146.63;43.45;;;18.80;99.90;;;;;;5076508;28;20088;-82
2021/07/14 03:36:53;;;;;;;126.00;41.53;;;18.70;99.90;;;;;;5080478;28;20452;-82
2021/07/14 03:39:20;;;;;;;130.32;41.42;;;18.70;99.90;;;;;;5046926;28;20043;-84
2021/07/14 03:41:47;;;;;;;145.27;40.70;;;18.70;99.90;;;;;;5066317;28;20036;-86
2021/07/14 03:44:17;;;;;;;192.82;45.10;;;18.70;99.90;;;;;;5086140;28;20526;-83
2021/07/14 03:46:43;;;;;;;143.43;42.00;;;18.70;99.90;;;;;;5070930;28;20032;-84
2021/07/14 03:49:12;;;;;;;99.00;38.97;;;18.60;99.90;;;;;;5095633;28;20035;-83
2021/07/14 03:51:41;;;;;;;130.60;41.28;;;18.70;99.90;;;;;;5091882;28;20042;-83
2021/07/14 03:54:11;;;;;;;108.32;39.05;;;18.60;99.90;;;;;;5090135;28;20028;-83
2021/07/14 03:56:46;;;;;;;106.28;37.38;;;18.60;99.90;;;;;;5083575;28;20047;-82
2021/07/14 03:59:12;;;;;;;105.25;37.85;;;18.60;99.90;;;;;;5055643;28;20040;-83
2021/07/14 04:01:38;;;;;;;107.25;35.67;;;18.60;99.90;;;;;;5090456;28;20478;-83
2021/07/14 04:04:06;;;;;;;122.82;38.70;;;18.70;99.90;;;;;;5087900;28;20043;-82
2021/07/14 04:06:35;;;;;;;102.00;35.92;;;18.60;99.90;;;;;;5055091;28;20052;-83
2021/07/14 04:09:16;;;;;;;97.68;37.65;;;18.60;99.90;;;;;;5069782;28;20040;-82
2021/07/14 04:11:43;;;;;;;99.80;36.13;;;18.60;99.90;;;;;;5090792;28;20031;-83
2021/07/14 04:14:09;;;;;;;124.65;40.30;;;18.60;99.90;;;;;;5066566;28;20041;-83
2021/07/14 04:16:35;;;;;;;107.50;38.78;;;18.60;99.90;;;;;;5064038;28;20035;-83
2021/07/14 04:19:01;;;;;;;116.05;40.10;;;18.60;99.90;;;;;;5090454;28;20035;-83
2021/07/14 04:21:28;;;;;;;115.60;40.20;;;18.60;99.90;;;;;;5090843;28;20032;-82
2021/07/14 04:23:56;;;;;;;122.82;41.42;;;18.60;99.90;;;;;;5090341;28;20082;-84
2021/07/14 04:26:25;;;;;;;126.97;41.88;;;18.70;99.90;;;;;;5070291;28;20048;-84
2021/07/14 04:28:53;;;;;;;111.82;41.33;;;18.60;99.90;;;;;;5074445;28;20032;-83
2021/07/14 04:31:19;;;;;;;128.20;42.88;;;18.60;99.90;;;;;;5056513;28;20081;-83
2021/07/14 04:33:45;;;;;;;113.45;42.97;;;18.70;99.90;;;;;;5087303;28;20051;-84
2021/07/14 04:36:12;;;;;;;111.82;43.30;;;18.70;99.90;;;;;;5099234;28;20036;-83
2021/07/14 04:38:38;;;;;;;124.40;45.40;;;18.60;99.90;;;;;;5112505;28;20024;-84
2021/07/14 04:41:05;;;;;;;107.20;43.40;;;18.70;99.90;;;;;;5055947;28;20098;-83
2021/07/14 04:43:31;;;;;;;113.30;46.42;;;18.70;99.90;;;;;;5054143;28;20036;-84
2021/07/14 04:46:01;;;;;;;119.78;45.65;;;18.70;99.90;;;;;;5086057;28;20036;-83
2021/07/14 04:48:26;;;;;;;128.60;50.13;;;18.70;99.90;;;;;;5089025;28;20118;-83
2021/07/14 04:50:52;;;;;;;140.48;50.67;;;18.70;99.90;;;;;;5074186;28;20048;-84
2021/07/14 04:53:28;;;;;;;121.78;48.45;;;18.70;99.90;;;;;;5061732;28;20736;-86
2021/07/14 04:55:56;;;;;;;120.97;49.20;;;18.70;99.90;;;;;;5060736;28;20471;-84
2021/07/14 04:58:22;;;;;;;122.43;49.53;;;18.70;99.90;;;;;;5062866;28;20085;-84
2021/07/14 05:00:48;;;;;;;115.13;49.15;;;18.70;99.90;;;;;;5054173;28;20086;-85
2021/07/14 05:03:14;;;;;;;114.85;49.88;;;18.70;99.90;;;;;;5027745;28;20044;-86
2021/07/14 05:05:40;;;;;;;112.15;49.60;;;18.70;99.90;;;;;;5057624;28;20044;-83
2021/07/14 05:08:06;;;;;;;105.00;48.67;;;18.70;99.90;;;;;;5063118;28;20028;-84
2021/07/14 05:10:32;;;;;;;107.07;50.95;;;18.80;99.90;;;;;;5068589;28;20052;-84
2021/07/14 05:12:58;;;;;;;104.57;51.15;;;18.80;99.90;;;;;;5086329;28;20036;-83
2021/07/14 05:15:24;;;;;;;98.65;48.05;;;18.70;99.90;;;;;;5069905;28;20028;-83
2021/07/14 05:17:50;;;;;;;97.97;49.22;;;18.80;99.90;;;;;;5084871;28;20060;-83
2021/07/14 05:20:17;;;;;;;98.38;48.30;;;18.80;99.90;;;;;;5084907;28;20732;-83
2021/07/14 05:22:44;;;;;;;106.50;51.45;;;18.80;99.90;;;;;;5058855;28;20097;-82
2021/07/14 05:25:10;;;;;;;95.70;48.22;;;18.80;99.90;;;;;;5081807;28;20031;-83
2021/07/14 05:27:37;;;;;;;97.95;50.50;;;18.80;99.90;;;;;;5071835;28;20391;-83
2021/07/14 05:30:07;;;;;;;91.45;49.63;;;18.80;99.90;;;;;;5049512;28;20040;-83
2021/07/14 05:32:33;;;;;;;88.88;49.10;;;18.90;99.90;;;;;;5082410;28;20114;-82
2021/07/14 05:35:00;;;;;;;92.53;47.05;;;18.90;99.90;;;;;;5072215;28;20040;-83
2021/07/14 05:37:27;;;;;;;86.40;47.85;;;18.90;99.90;;;;;;5061068;28;20039;-85
2021/07/14 05:39:53;;;;;;;93.95;48.40;;;18.90;99.90;;;;;;5055764;28;20115;-87
2021/07/14 05:42:19;;;;;;;83.00;47.55;;;19.00;99.90;;;;;;5071213;28;20119;-85
2021/07/14 05:44:44;;;;;;;86.97;48.80;;;19.00;99.90;;;;;;5068346;28;20100;-83
2021/07/14 05:47:20;;;;;;;81.93;47.88;;;19.00;99.90;;;;;;5076374;28;20049;-85
2021/07/14 05:49:46;;;;;;;78.72;47.67;;;19.00;99.90;;;;;;5036376;28;20044;-84
2021/07/14 05:52:14;;;;;;;78.07;47.13;;;19.10;99.90;;;;;;5074372;28;20036;-84
2021/07/14 05:54:41;;;;;;;78.80;45.78;;;19.10;99.90;;;;;;5072546;28;20043;-85
2021/07/14 05:57:07;;;;;;;72.63;44.22;;;19.10;99.90;;;;;;5084609;28;20029;-84
2021/07/14 05:59:33;;;;;;;78.00;44.58;;;19.20;99.90;;;;;;5053478;28;20406;-84
2021/07/14 06:01:58;;;;;;;76.00;44.28;;;19.20;99.90;;;;;;5090160;28;20035;-84
2021/07/14 06:04:24;;;;;;;70.78;44.38;;;19.20;99.90;;;;;;5048107;28;20116;-83
2021/07/14 06:06:50;;;;;;;71.18;43.28;;;19.20;99.90;;;;;;5072292;28;20059;-84
2021/07/14 06:09:21;;;;;;;66.13;42.38;;;19.20;99.90;;;;;;5070600;28;20043;-85
2021/07/14 06:11:48;;;;;;;68.77;41.40;;;19.30;99.90;;;;;;5067772;28;20036;-85
2021/07/14 06:14:13;;;;;;;64.65;40.72;;;19.30;99.90;;;;;;5051579;28;20924;-84
2021/07/14 06:16:42;;;;;;;67.47;42.38;;;19.30;99.90;;;;;;5085100;28;20033;-83
2021/07/14 06:19:08;;;;;;;62.42;40.58;;;19.40;99.90;;;;;;5036971;28;20515;-84
2021/07/14 06:21:39;;;;;;;60.22;38.55;;;19.40;99.90;;;;;;5066528;28;20326;-84
2021/07/14 06:24:13;;;;;;;60.83;39.20;;;19.40;99.90;;;;;;5042617;28;20032;-85
2021/07/14 06:26:39;;;;;;;57.65;38.80;;;19.40;99.90;;;;;;5072633;28;20040;-84
2021/07/14 06:29:08;;;;;;;53.55;36.70;;;19.40;99.90;;;;;;5049217;28;20046;-85
2021/07/14 06:31:35;;;;;;;55.17;36.22;;;19.50;99.90;;;;;;5068344;28;20036;-86
2021/07/14 06:34:01;;;;;;;50.28;34.90;;;19.50;99.90;;;;;;5055881;28;20490;-85
2021/07/14 06:36:39;;;;;;;57.25;35.17;;;19.50;99.90;;;;;;5054286;28;20044;-85
2021/07/14 06:39:08;;;;;;;50.03;36.17;;;19.50;99.90;;;;;;5068690;28;20056;-85
2021/07/14 06:41:41;;;;;;;46.03;34.10;;;19.50;99.90;;;;;;5085754;28;20032;-84
2021/07/14 06:44:07;;;;;;;49.28;34.08;;;19.50;99.90;;;;;;5085402;28;20028;-84
2021/07/14 06:46:33;;;;;;;46.88;33.65;;;19.50;99.90;;;;;;5060503;28;20071;-83
2021/07/14 06:49:00;;;;;;;46.55;33.03;;;19.50;99.90;;;;;;5054939;28;20047;-84
2021/07/14 06:51:26;;;;;;;44.20;33.42;;;19.60;99.90;;;;;;5070781;28;20115;-85
2021/07/14 06:53:52;;;;;;;44.45;32.38;;;19.60;99.90;;;;;;5046098;28;20321;-84
2021/07/14 06:56:18;;;;;;;46.08;31.85;;;19.60;99.90;;;;;;5082505;28;20044;-85
2021/07/14 06:58:44;;;;;;;41.08;31.67;;;19.60;99.90;;;;;;5089401;28;20032;-84
2021/07/14 07:01:10;;;;;;;43.22;32.47;;;19.60;99.90;;;;;;5056840;28;20465;-85
2021/07/14 07:03:42;;;;;;;40.38;30.20;;;19.60;99.90;;;;;;5084975;28;20074;-84
2021/07/14 07:06:17;;;;;;;43.72;30.33;;;19.60;99.90;;;;;;5058308;28;20037;-84
2021/07/14 07:08:46;;;;;;;44.40;30.17;;;19.60;99.90;;;;;;5053317;28;20516;-85
2021/07/14 07:11:12;;;;;;;43.90;30.65;;;19.60;99.90;;;;;;5060625;28;20119;-84
2021/07/14 07:13:48;;;;;;;41.72;30.02;;;19.60;99.90;;;;;;5071983;28;20044;-85
2021/07/14 07:16:14;;;;;;;41.13;29.58;;;19.60;99.90;;;;;;5061252;28;20089;-85
2021/07/14 07:18:49;;;;;;;36.28;29.17;;;19.60;99.90;;;;;;5082110;28;20440;-84
2021/07/14 07:21:29;;;;;;;44.30;30.95;;;19.60;99.90;;;;;;5045064;28;20040;-85
2021/07/14 07:24:10;;;;;;;37.42;30.63;;;19.70;99.90;;;;;;5082676;28;20107;-85
2021/07/14 07:26:36;;;;;;;44.70;29.35;;;19.70;99.90;;;;;;5069273;28;20127;-84
2021/07/14 07:29:05;;;;;;;40.10;29.55;;;19.70;99.90;;;;;;5064227;28;20063;-85
2021/07/14 07:31:32;;;;;;;39.92;29.77;;;19.70;99.90;;;;;;5069028;28;20123;-84
2021/07/14 07:34:02;;;;;;;40.83;30.63;;;19.80;99.90;;;;;;5061321;28;20554;-84
2021/07/14 07:36:33;;;;;;;43.35;30.45;;;19.80;99.90;;;;;;5050816;28;20578;-84
2021/07/14 07:38:59;;;;;;;45.75;31.02;;;19.80;99.90;;;;;;5047364;28;20129;-85
2021/07/14 07:41:27;;;;;;;38.30;30.30;;;19.90;99.90;;;;;;5056309;28;20141;-85
2021/07/14 07:43:54;;;;;;;44.90;30.05;;;19.90;99.90;;;;;;5053144;28;20278;-84
2021/07/14 07:46:20;;;;;;;43.45;29.27;;;19.90;99.90;;;;;;5051756;28;20095;-84
2021/07/14 07:48:46;;;;;;;44.17;30.95;;;19.90;99.90;;;;;;5070239;28;20539;-85
2021/07/14 07:51:17;;;;;;;43.17;30.98;;;19.90;99.90;;;;;;5080610;28;20043;-85
2021/07/14 07:53:46;;;;;;;40.78;30.50;;;19.90;99.90;;;;;;5067311;28;20040;-84
2021/07/14 07:56:12;;;;;;;38.85;28.65;;;20.00;99.90;;;;;;5053228;28;20044;-84
2021/07/14 07:58:38;;;;;;;40.90;29.70;;;20.00;99.90;;;;;;5068939;28;20093;-85
2021/07/14 08:01:04;;;;;;;38.42;29.73;;;20.10;99.90;;;;;;5053823;28;20375;-84
2021/07/14 08:03:30;;;;;;;37.80;29.80;;;20.10;99.90;;;;;;5083143;28;20105;-84
2021/07/14 08:05:56;;;;;;;40.72;29.13;;;20.10;99.90;;;;;;5055118;28;20232;-84
2021/07/14 08:08:23;;;;;;;44.13;30.98;;;20.20;99.90;;;;;;5074953;28;20031;-84
2021/07/14 08:10:52;;;;;;;37.97;29.95;;;20.20;99.90;;;;;;5086009;28;20238;-83
2021/07/14 08:13:18;;;;;;;43.00;31.50;;;20.30;99.90;;;;;;5069229;28;20070;-84
2021/07/14 08:15:45;;;;;;;40.28;29.27;;;20.30;99.90;;;;;;5048679;28;20276;-83
2021/07/14 08:18:11;;;;;;;43.95;31.35;;;20.40;99.90;;;;;;5073382;28;20071;-87
2021/07/14 08:20:36;;;;;;;42.05;31.02;;;20.50;99.90;;;;;;5089578;28;20028;-84
2021/07/14 08:23:02;;;;;;;47.35;32.05;;;20.60;99.90;;;;;;5072005;28;20043;-84
2021/07/14 08:25:28;;;;;;;37.28;28.52;;;20.60;99.90;;;;;;5089593;28;20038;-84
2021/07/14 08:28:01;;;;;;;37.30;27.73;;;20.70;99.90;;;;;;5073426;28;20039;-88
2021/07/14 08:30:26;;;;;;;;;;;20.70;99.90;;;;;;5083363;28;20048;-84
2021/07/14 08:32:52;;;;;;;41.60;27.35;;;20.80;99.90;;;;;;5046861;28;19960;-85
2021/07/14 08:35:18;;;;;;;36.47;27.75;;;20.90;99.90;;;;;;5078466;28;20455;-84
2021/07/14 08:37:45;;;;;;;41.15;27.85;;;20.90;99.90;;;;;;5050704;28;20051;-84
2021/07/14 08:40:12;;;;;;;39.42;26.10;;;21.10;99.90;;;;;;5064731;28;20035;-84
2021/07/14 08:42:42;;;;;;;39.08;28.80;;;21.10;99.90;;;;;;5068022;28;20093;-85
2021/07/14 08:45:11;;;;;;;33.80;27.98;;;21.30;99.90;;;;;;5071939;28;20024;-84
2021/07/14 08:47:38;;;;;;;32.17;26.52;;;21.30;99.90;;;;;;5088827;28;20024;-84
2021/07/14 08:50:07;;;;;;;31.08;26.35;;;21.40;99.90;;;;;;5082273;28;20051;-85
2021/07/14 08:52:33;;;;;;;33.28;25.88;;;21.60;99.90;;;;;;5087727;28;20589;-84
2021/07/14 08:54:59;;;;;;;39.20;28.85;;;21.60;99.90;;;;;;5071796;28;20037;-84
2021/07/14 08:57:25;;;;;;;29.45;25.40;;;21.60;99.80;;;;;;5071998;28;20544;-84
2021/07/14 08:59:51;;;;;;;29.42;26.30;;;21.70;99.60;;;;;;5067566;28;20150;-85
2021/07/14 09:02:17;;;;;;;31.42;27.92;;;21.80;99.60;;;;;;5067396;28;20060;-83
2021/07/14 09:04:43;;;;;;;29.77;26.55;;;21.80;99.40;;;;;;5054248;28;20036;-83
2021/07/14 09:07:10;;;;;;;29.23;25.33;;;21.80;99.40;;;;;;5064158;28;20131;-84
2021/07/14 09:09:37;;;;;;;33.28;26.90;;;21.80;99.30;;;;;;5066945;28;20064;-86
2021/07/14 09:12:09;;;;;;;32.17;28.20;;;21.80;99.30;;;;;;5070603;28;20028;-88
2021/07/14 09:14:41;;;;;;;31.08;26.42;;;21.90;99.20;;;;;;5079531;28;20059;-85
2021/07/14 09:17:23;;;;;;;28.65;25.65;;;22.00;98.90;;;;;;5082599;28;20369;-84
2021/07/14 09:19:59;;;;;;;33.08;27.63;;;22.00;98.90;;;;;;5061003;28;20040;-84
2021/07/14 09:22:31;;;;;;;30.65;25.98;;;22.00;98.90;;;;;;5062990;28;20102;-85
2021/07/14 09:24:57;;;;;;;33.70;25.83;;;22.00;98.90;;;;;;5069857;28;20048;-83
2021/07/14 09:27:30;;;;;;;34.65;25.80;;;22.10;98.80;;;;;;5071868;28;20111;-83
2021/07/14 09:30:16;;;;;;;32.42;25.63;;;22.00;98.60;;;;;;5104076;28;20057;-83
2021/07/14 09:32:51;;;;;;;33.17;26.23;;;22.00;98.50;;;;;;5076543;28;20444;-83
2021/07/14 09:35:44;;;;;;;32.55;25.17;;;22.00;98.60;;;;;;5090389;28;20103;-83
2021/07/14 09:38:12;;;;;;;32.40;25.10;;;22.00;98.60;;;;;;5090940;28;20027;-85
2021/07/14 09:40:41;;;;;;;27.85;24.40;;;22.00;98.60;;;;;;5065903;28;20059;-84
2021/07/14 09:43:23;;;;;;;31.67;25.50;;;22.00;98.60;;;;;;5067832;28;20498;-85
2021/07/14 09:45:49;;;;;;;31.30;25.67;;;22.00;98.50;;;;;;5057650;28;20047;-82
2021/07/14 09:48:28;;;;;;;34.83;26.13;;;22.00;98.60;;;;;;5084592;28;20436;-83
2021/07/14 09:51:09;;;;;;;30.85;26.13;;;22.00;98.70;;;;;;5083544;28;20028;-87
2021/07/14 09:53:37;;;;;;;30.48;26.23;;;22.00;98.60;;;;;;5082025;28;20041;-84
2021/07/14 09:56:10;;;;;;;30.83;26.70;;;22.00;98.70;;;;;;5063260;28;20060;-84
2021/07/14 09:58:36;;;;;;;34.33;24.92;;;22.10;98.50;;;;;;5078503;28;20096;-84
2021/07/14 10:01:05;;;;;;;29.85;25.02;;;22.10;98.50;;;;;;5069100;28;20108;-84
2021/07/14 10:03:32;;;;;;;30.98;25.45;;;22.10;98.60;;;;;;5054114;28;20493;-84
2021/07/14 10:06:10;;;;;;;32.67;26.08;;;22.20;98.50;;;;;;5088975;28;20505;-84
2021/07/14 10:08:42;;;;;;;30.55;24.50;;;22.20;98.40;;;;;;5083215;28;20036;-83
2021/07/14 10:11:17;;;;;;;31.33;25.85;;;22.30;98.40;;;;;;5086177;28;20034;-84
2021/07/14 10:14:07;;;;;;;27.70;24.75;;;22.40;98.20;;;;;;5077910;28;20083;-84
2021/07/14 10:16:38;;;;;;;31.30;24.83;;;22.60;98.10;;;;;;5079525;28;20036;-84
2021/07/14 10:19:13;;;;;;;30.73;24.73;;;22.80;97.80;;;;;;5086894;28;20028;-85
2021/07/14 10:21:42;;;;;;;30.65;24.20;;;22.80;97.40;;;;;;5088410;28;20039;-84
2021/07/14 10:24:12;;;;;;;27.45;23.85;;;22.80;97.10;;;;;;5069522;28;20486;-85
2021/07/14 10:26:41;;;;;;;27.77;23.70;;;22.80;97.00;;;;;;5071686;28;20117;-84
2021/07/14 10:29:08;;;;;;;30.98;23.70;;;22.80;96.90;;;;;;5084059;28;20048;-87
2021/07/14 10:31:35;;;;;;;30.13;24.17;;;22.80;97.00;;;;;;5069980;28;20393;-85
2021/07/14 10:34:03;;;;;;;29.35;24.75;;;22.80;97.10;;;;;;5087182;28;20105;-85
2021/07/14 10:36:31;;;;;;;30.85;25.48;;;22.80;97.10;;;;;;5069291;28;20036;-84
2021/07/14 10:39:10;;;;;;;30.27;24.50;;;22.90;96.90;;;;;;5083630;28;20035;-85
2021/07/14 10:41:36;;;;;;;30.23;23.45;;;22.90;96.90;;;;;;5080055;28;20582;-86
2021/07/14 10:44:07;;;;;;;29.98;23.63;;;23.00;96.90;;;;;;5067389;28;20486;-87
2021/07/14 10:46:35;;;;;;;32.92;25.73;;;23.00;96.80;;;;;;5083369;28;20094;-88
2021/07/14 10:49:05;;;;;;;30.52;25.38;;;23.00;96.60;;;;;;5070714;28;20059;-86
2021/07/14 10:51:32;;;;;;;27.40;24.42;;;23.00;96.50;;;;;;5083319;28;20394;-87
2021/07/14 10:54:02;;;;;;;30.95;24.88;;;22.90;96.40;;;;;;5067333;28;20052;-86
2021/07/14 10:56:42;;;;;;;29.40;26.13;;;22.80;96.30;;;;;;5035659;28;20031;-86
2021/07/14 10:59:10;;;;;;;28.70;25.27;;;22.90;96.20;;;;;;5069932;28;20044;-86
2021/07/14 11:01:39;;;;;;;29.65;24.10;;;22.80;96.30;;;;;;5043071;28;20043;-85
2021/07/14 11:04:10;;;;;;;32.35;24.45;;;22.80;96.50;;;;;;5082970;28;20471;-85
2021/07/14 11:06:52;;;;;;;26.58;22.95;;;22.80;96.60;;;;;;5082643;28;20128;-87
2021/07/14 11:09:53;;;;;;;27.92;21.45;;;22.90;96.40;;;;;;5085805;28;20043;-86
2021/07/14 11:12:30;;;;;;;25.17;22.15;;;23.00;96.40;;;;;;5045743;28;20043;-86
2021/07/14 11:15:01;;;;;;;29.90;23.60;;;23.10;96.10;;;;;;5092865;28;20044;-86
2021/07/14 11:17:31;;;;;;;25.33;22.52;;;23.10;96.30;;;;;;5071746;28;20043;-86
2021/07/14 11:20:08;;;;;;;30.98;22.70;;;23.20;95.90;;;;;;5061362;28;20359;-86
2021/07/14 11:22:33;;;;;;;25.52;20.63;;;23.20;95.70;;;;;;5085377;28;20028;-86
2021/07/14 11:25:00;;;;;;;23.70;19.88;;;23.20;95.80;;;;;;5086142;28;20035;-86
2021/07/14 11:27:26;;;;;;;22.85;19.88;;;23.20;95.60;;;;;;5066913;28;20115;-87
2021/07/14 11:30:16;;;;;;;29.10;21.23;;;23.20;95.70;;;;;;5086746;28;20530;-86
2021/07/14 11:32:42;;;;;;;27.42;19.50;;;23.20;95.40;;;;;;5086633;28;20105;-85
2021/07/14 11:35:13;;;;;;;22.10;19.13;;;23.10;95.60;;;;;;5086060;28;20097;-86
2021/07/14 11:37:42;;;;;;;27.40;18.75;;;23.10;95.60;;;;;;5088838;28;20502;-85
2021/07/14 11:40:20;;;;;;;22.75;18.52;;;23.00;95.50;;;;;;5077814;28;20499;-85
2021/07/14 11:43:01;;;;;;;23.35;19.88;;;23.00;95.90;;;;;;5101085;28;20031;-87
2021/07/14 11:45:33;;;;;;;27.08;19.10;;;23.00;95.80;;;;;;5085858;28;20406;-85
2021/07/14 11:48:02;;;;;;;23.98;18.20;;;22.90;95.70;;;;;;5107520;28;20023;-85
2021/07/14 11:50:46;;;;;;;19.80;17.38;;;23.00;96.10;;;;;;5093178;28;20072;-85
2021/07/14 11:53:30;;;;;;;22.38;18.90;;;23.00;96.10;;;;;;5086970;28;20069;-85
2021/07/14 11:56:18;;;;;;;27.65;19.50;;;22.90;96.00;;;;;;5082888;28;20227;-85
2021/07/14 11:59:00;;;;;;;22.77;18.80;;;22.90;95.80;;;;;;5080069;28;20055;-86
2021/07/14 12:01:26;;;;;;;28.17;19.85;;;22.90;95.60;;;;;;5084873;28;20039;-87
2021/07/14 12:04:01;;;;;;;25.48;19.40;;;22.80;95.50;;;;;;5088389;28;20032;-85
2021/07/14 12:06:38;;;;;;;23.98;18.63;;;22.80;95.30;;;;;;5077499;28;20032;-85
2021/07/14 12:09:13;;;;;;;30.10;19.63;;;22.80;95.40;;;;;;5074086;28;20028;-85
2021/07/14 12:11:52;;;;;;;23.77;18.58;;;22.90;95.40;;;;;;5079610;28;20081;-84
2021/07/14 12:14:34;;;;;;;22.80;18.13;;;22.90;95.40;;;;;;5086732;28;20157;-86
2021/07/14 12:17:21;;;;;;;24.07;18.93;;;22.90;95.40;;;;;;5064018;28;20048;-85
2021/07/14 12:19:55;;;;;;;25.52;19.85;;;22.80;95.40;;;;;;5081824;28;20028;-86
2021/07/14 12:22:26;;;;;;;26.70;18.75;;;22.80;95.70;;;;;;5073611;28;20035;-86
2021/07/14 12:24:55;;;;;;;26.30;19.20;;;22.80;95.40;;;;;;5077275;28;20056;-86
2021/07/14 12:27:35;;;;;;;24.67;18.35;;;22.80;95.60;;;;;;5083482;28;20090;-85
2021/07/14 12:30:20;;;;;;;24.33;19.08;;;22.80;95.80;;;;;;5087242;28;20719;-85
2021/07/14 12:32:51;;;;;;;23.60;18.33;;;22.80;95.80;;;;;;5084374;28;20141;-86
2021/07/14 12:35:25;;;;;;;23.25;18.02;;;22.80;96.00;;;;;;5082943;28;20457;-85
2021/07/14 12:37:54;;;;;;;29.42;19.48;;;22.80;95.90;;;;;;5087934;28;20111;-85
2021/07/14 12:40:29;;;;;;;24.30;17.38;;;22.80;95.80;;;;;;5081925;28;20567;-85
2021/07/14 12:42:57;;;;;;;26.55;17.80;;;22.90;95.80;;;;;;5083819;28;20305;-85